sensor_id;sensor_type;location;lat;lon;timestamp;pressure;altitude;pressure_sealevel;temperature;humidity
32298;BME280;18782;48.984;8.548;2023-12-20T00:00:04;100019.28;;;6.04;100.00
32298;BME280;18782;48.984;8.548;2023-12-20T00:02:32;100027.34;;;5.93;100.00
32298;BME280;18782;48.984;8.548;2023-12-20T00:05:01;100022.09;;;5.90;100.00
32298;BME280;18782;48.984;8.548;2023-12-20T00:07:29;100011.72;;;5.87;100.00
32298;BME280;18782;48.984;8.548;2023-12-20T00:09:56;100020.88;;;5.82;100.00
32298;BME280;18782;48.984;8.548;2023-12-20T00:12:24;100023.47;;;5.84;100.00
32298;BME280;18782;48.984;8.548;2023-12-20T00:14:52;100014.69;;;5.77;100.00
32298;BME280;18782;48.984;8.548;2023-12-20T00:17:19;100017.03;;;5.72;100.00
32298;BME280;18782;48.984;8.548;2023-12-20T00:19:47;100013.38;;;5.67;100.00
32298;BME280;18782;48.984;8.548;2023-12-20T00:22:16;100013.38;;;5.67;100.00
32298;BME280;18782;48.984;8.548;2023-12-20T00:24:44;100017.63;;;5.67;100.00
32298;BME280;18782;48.984;8.548;2023-12-20T00:27:11;100007.41;;;5.67;100.00
32298;BME280;18782;48.984;8.548;2023-12-20T00:29:39;100014.13;;;5.65;100.00
32298;BME280;18782;48.984;8.548;2023-12-20T00:32:09;100012.50;;;5.67;100.00
32298;BME280;18782;48.984;8.548;2023-12-20T00:34:37;100004.03;;;5.68;100.00
32298;BME280;18782;48.984;8.548;2023-12-20T00:37:04;100011.78;;;5.69;100.00
32298;BME280;18782;48.984;8.548;2023-12-20T00:39:33;100018.56;;;5.69;100.00
32298;BME280;18782;48.984;8.548;2023-12-20T00:42:01;100002.31;;;5.67;100.00
32298;BME280;18782;48.984;8.548;2023-12-20T00:44:29;100011.19;;;5.75;100.00
32298;BME280;18782;48.984;8.548;2023-12-20T00:46:57;100011.84;;;5.71;100.00
32298;BME280;18782;48.984;8.548;2023-12-20T00:49:25;100018.69;;;5.72;100.00
32298;BME280;18782;48.984;8.548;2023-12-20T00:51:52;100017.88;;;5.73;100.00
32298;BME280;18782;48.984;8.548;2023-12-20T00:54:20;100015.13;;;5.68;100.00
32298;BME280;18782;48.984;8.548;2023-12-20T00:56:49;100026.38;;;5.72;100.00
32298;BME280;18782;48.984;8.548;2023-12-20T00:59:17;100023.88;;;5.73;100.00
32298;BME280;18782;48.984;8.548;2023-12-20T01:01:45;100017.88;;;5.73;100.00
32298;BME280;18782;48.984;8.548;2023-12-20T01:04:13;100017.63;;;5.67;100.00
32298;BME280;18782;48.984;8.548;2023-12-20T01:06:41;100032.81;;;5.64;100.00
32298;BME280;18782;48.984;8.548;2023-12-20T01:09:08;100028.66;;;5.66;100.00
32298;BME280;18782;48.984;8.548;2023-12-20T01:11:36;100030.28;;;5.64;100.00
32298;BME280;18782;48.984;8.548;2023-12-20T01:14:05;100029.47;;;5.65;100.00
32298;BME280;18782;48.984;8.548;2023-12-20T01:16:32;100031.19;;;5.66;100.00
32298;BME280;18782;48.984;8.548;2023-12-20T01:19:00;100019.38;;;5.68;100.00
32298;BME280;18782;48.984;8.548;2023-12-20T01:21:28;100032.00;;;5.65;100.00
32298;BME280;18782;48.984;8.548;2023-12-20T01:23:56;100017.78;;;5.70;100.00
32298;BME280;18782;48.984;8.548;2023-12-20T01:26:23;100015.88;;;5.66;100.00
32298;BME280;18782;48.984;8.548;2023-12-20T01:28:51;100012.66;;;5.70;100.00
32298;BME280;18782;48.984;8.548;2023-12-20T01:31:20;100011.66;;;5.66;100.00
32298;BME280;18782;48.984;8.548;2023-12-20T01:33:48;100003.06;;;5.64;100.00
32298;BME280;18782;48.984;8.548;2023-12-20T01:36:15;100006.53;;;5.66;100.00
32298;BME280;18782;48.984;8.548;2023-12-20T01:38:43;100006.59;;;5.68;100.00
32298;BME280;18782;48.984;8.548;2023-12-20T01:41:11;100005.78;;;5.69;100.00
32298;BME280;18782;48.984;8.548;2023-12-20T01:43:38;100002.50;;;5.71;100.00
32298;BME280;18782;48.984;8.548;2023-12-20T01:46:17;100011.91;;;5.72;100.00
32298;BME280;18782;48.984;8.548;2023-12-20T01:48:46;100006.84;;;5.74;100.00
32298;BME280;18782;48.984;8.548;2023-12-20T01:51:15;100001.25;;;5.81;100.00
32298;BME280;18782;48.984;8.548;2023-12-20T01:53:43;99995.13;;;5.78;100.00
32298;BME280;18782;48.984;8.548;2023-12-20T01:56:11;100003.91;;;5.84;100.00
32298;BME280;18782;48.984;8.548;2023-12-20T01:58:43;100002.97;;;5.82;100.00
32298;BME280;18782;48.984;8.548;2023-12-20T02:01:11;100014.06;;;5.83;100.00
32298;BME280;18782;48.984;8.548;2023-12-20T02:03:40;100001.09;;;5.78;100.00
32298;BME280;18782;48.984;8.548;2023-12-20T02:06:09;100008.03;;;5.81;100.00
32298;BME280;18782;48.984;8.548;2023-12-20T02:08:37;100012.28;;;5.80;100.00
32298;BME280;18782;48.984;8.548;2023-12-20T02:11:05;100009.72;;;5.80;100.00
32298;BME280;18782;48.984;8.548;2023-12-20T02:13:32;100017.28;;;5.79;100.00
32298;BME280;18782;48.984;8.548;2023-12-20T02:16:00;100019.78;;;5.77;100.00
32298;BME280;18782;48.984;8.548;2023-12-20T02:18:28;100011.47;;;5.81;100.00
32298;BME280;18782;48.984;8.548;2023-12-20T02:20:56;100013.34;;;5.85;100.00
32298;BME280;18782;48.984;8.548;2023-12-20T02:23:25;100008.25;;;5.85;100.00
32298;BME280;18782;48.984;8.548;2023-12-20T02:25:52;100005.38;;;5.79;100.00
32298;BME280;18782;48.984;8.548;2023-12-20T02:28:20;100008.09;;;5.82;100.00
32298;BME280;18782;48.984;8.548;2023-12-20T02:30:49;100021.94;;;5.87;100.00
32298;BME280;18782;48.984;8.548;2023-12-20T02:33:16;100008.34;;;5.88;100.00
32298;BME280;18782;48.984;8.548;2023-12-20T02:35:44;100011.72;;;5.87;100.00
32298;BME280;18782;48.984;8.548;2023-12-20T02:38:12;100012.03;;;5.93;100.00
32298;BME280;18782;48.984;8.548;2023-12-20T02:40:41;100005.84;;;5.90;100.00
32298;BME280;18782;48.984;8.548;2023-12-20T02:43:15;100013.47;;;5.88;100.00
32298;BME280;18782;48.984;8.548;2023-12-20T02:45:43;100003.44;;;5.91;100.00
32298;BME280;18782;48.984;8.548;2023-12-20T02:48:11;100007.47;;;5.88;100.00
32298;BME280;18782;48.984;8.548;2023-12-20T02:50:39;100014.78;;;5.98;100.00
32298;BME280;18782;48.984;8.548;2023-12-20T02:53:06;100024.28;;;6.00;100.00
32298;BME280;18782;48.984;8.548;2023-12-20T02:55:34;100034.50;;;6.00;100.00
32298;BME280;18782;48.984;8.548;2023-12-20T02:58:03;100034.88;;;5.90;100.00
32298;BME280;18782;48.984;8.548;2023-12-20T03:00:31;100030.72;;;5.92;100.00
32298;BME280;18782;48.984;8.548;2023-12-20T03:02:59;100026.41;;;5.91;100.00
32298;BME280;18782;48.984;8.548;2023-12-20T03:05:27;100043.53;;;5.94;100.00
32298;BME280;18782;48.984;8.548;2023-12-20T03:07:55;100040.94;;;5.92;100.00
32298;BME280;18782;48.984;8.548;2023-12-20T03:10:22;100027.09;;;5.89;100.00
32298;BME280;18782;48.984;8.548;2023-12-20T03:12:53;100035.53;;;5.86;100.00
32298;BME280;18782;48.984;8.548;2023-12-20T03:15:22;100033.63;;;5.82;100.00
32298;BME280;18782;48.984;8.548;2023-12-20T03:17:49;100045.75;;;5.86;100.00
32298;BME280;18782;48.984;8.548;2023-12-20T03:20:17;100037.31;;;5.89;100.00
32298;BME280;18782;48.984;8.548;2023-12-20T03:22:45;100046.41;;;5.82;100.00
32298;BME280;18782;48.984;8.548;2023-12-20T03:25:13;100029.53;;;5.86;100.00
32298;BME280;18782;48.984;8.548;2023-12-20T03:27:40;100024.34;;;5.84;100.00
32298;BME280;18782;48.984;8.548;2023-12-20T03:30:09;100021.69;;;5.81;100.00
32298;BME280;18782;48.984;8.548;2023-12-20T03:32:38;100008.91;;;5.81;100.00
32298;BME280;18782;48.984;8.548;2023-12-20T03:35:06;100015.34;;;5.73;100.00
32298;BME280;18782;48.984;8.548;2023-12-20T03:37:34;100027.25;;;5.72;100.00
32298;BME280;18782;48.984;8.548;2023-12-20T03:40:02;100027.28;;;5.74;100.00
32298;BME280;18782;48.984;8.548;2023-12-20T03:42:30;100035.91;;;5.76;100.00
32298;BME280;18782;48.984;8.548;2023-12-20T03:44:57;100034.38;;;5.80;100.00
32298;BME280;18782;48.984;8.548;2023-12-20T03:47:25;100021.69;;;5.81;100.00
32298;BME280;18782;48.984;8.548;2023-12-20T03:49:54;100022.50;;;5.80;100.00
32298;BME280;18782;48.984;8.548;2023-12-20T03:52:22;100010.38;;;5.76;100.00
32298;BME280;18782;48.984;8.548;2023-12-20T03:54:49;100019.94;;;5.80;100.00
32298;BME280;18782;48.984;8.548;2023-12-20T03:57:17;100026.63;;;5.78;100.00
32298;BME280;18782;48.984;8.548;2023-12-20T03:59:45;100029.53;;;5.86;100.00
32298;BME280;18782;48.984;8.548;2023-12-20T04:02:13;100037.13;;;5.84;100.00
32298;BME280;18782;48.984;8.548;2023-12-20T04:04:41;100025.03;;;5.80;100.00
32298;BME280;18782;48.984;8.548;2023-12-20T04:07:10;100027.66;;;5.82;100.00
32298;BME280;18782;48.984;8.548;2023-12-20T04:09:38;100026.78;;;5.81;100.00
32298;BME280;18782;48.984;8.548;2023-12-20T04:12:06;100040.50;;;5.83;100.00
32298;BME280;18782;48.984;8.548;2023-12-20T04:14:34;100037.13;;;5.84;100.00
32298;BME280;18782;48.984;8.548;2023-12-20T04:17:01;100044.00;;;5.85;100.00
32298;BME280;18782;48.984;8.548;2023-12-20T04:19:29;100056.09;;;5.89;100.00
32298;BME280;18782;48.984;8.548;2023-12-20T04:21:57;100058.81;;;5.92;100.00
32298;BME280;18782;48.984;8.548;2023-12-20T04:24:26;100056.41;;;5.95;100.00
32298;BME280;18782;48.984;8.548;2023-12-20T04:26:53;100048.06;;;5.99;100.00
32298;BME280;18782;48.984;8.548;2023-12-20T04:29:21;100056.41;;;5.95;100.00
32298;BME280;18782;48.984;8.548;2023-12-20T04:31:49;100049.41;;;5.91;100.00
32298;BME280;18782;48.984;8.548;2023-12-20T04:34:18;100049.41;;;5.91;100.00
32298;BME280;18782;48.984;8.548;2023-12-20T04:36:45;100055.22;;;5.89;100.00
32298;BME280;18782;48.984;8.548;2023-12-20T04:39:13;100058.53;;;5.86;100.00
32298;BME280;18782;48.984;8.548;2023-12-20T04:41:43;100072.41;;;5.91;100.00
32298;BME280;18782;48.984;8.548;2023-12-20T04:44:10;100066.50;;;5.92;100.00
32298;BME280;18782;48.984;8.548;2023-12-20T04:46:38;100067.94;;;5.87;100.00
32298;BME280;18782;48.984;8.548;2023-12-20T04:49:06;100069.66;;;5.88;100.00
32298;BME280;18782;48.984;8.548;2023-12-20T04:51:34;100069.66;;;5.88;100.00
32298;BME280;18782;48.984;8.548;2023-12-20T04:54:02;100069.66;;;5.88;100.00
32298;BME280;18782;48.984;8.548;2023-12-20T04:56:30;100067.16;;;5.90;100.00
32298;BME280;18782;48.984;8.548;2023-12-20T04:58:59;100073.09;;;5.89;100.00
32298;BME280;18782;48.984;8.548;2023-12-20T05:01:27;100081.63;;;5.89;100.00
32298;BME280;18782;48.984;8.548;2023-12-20T05:03:55;100086.75;;;5.89;100.00
32298;BME280;18782;48.984;8.548;2023-12-20T05:06:22;100081.81;;;5.92;100.00
32298;BME280;18782;48.984;8.548;2023-12-20T05:08:51;100094.94;;;5.82;100.00
32298;BME280;18782;48.984;8.548;2023-12-20T05:11:18;100095.09;;;5.85;100.00
32298;BME280;18782;48.984;8.548;2023-12-20T05:13:46;100095.22;;;5.88;100.00
32298;BME280;18782;48.984;8.548;2023-12-20T05:16:17;100095.88;;;5.84;100.00
32298;BME280;18782;48.984;8.548;2023-12-20T05:18:48;100088.22;;;5.84;100.00
32298;BME280;18782;48.984;8.548;2023-12-20T05:21:18;100108.66;;;5.84;100.00
32298;BME280;18782;48.984;8.548;2023-12-20T05:23:46;100111.88;;;5.80;100.00
32298;BME280;18782;48.984;8.548;2023-12-20T05:26:14;100103.25;;;5.78;100.00
32298;BME280;18782;48.984;8.548;2023-12-20T05:28:41;100096.69;;;5.83;100.00
32298;BME280;18782;48.984;8.548;2023-12-20T05:31:09;100117.13;;;5.83;100.00
32298;BME280;18782;48.984;8.548;2023-12-20T05:33:38;100121.63;;;5.89;100.00
32298;BME280;18782;48.984;8.548;2023-12-20T05:36:06;100111.19;;;5.84;100.00
32298;BME280;18782;48.984;8.548;2023-12-20T05:38:37;100120.66;;;5.85;100.00
32298;BME280;18782;48.984;8.548;2023-12-20T05:41:05;100122.38;;;5.86;100.00
32298;BME280;18782;48.984;8.548;2023-12-20T05:43:33;100120.66;;;5.85;100.00
32298;BME280;18782;48.984;8.548;2023-12-20T05:46:00;100125.06;;;5.89;100.00
32298;BME280;18782;48.984;8.548;2023-12-20T05:48:28;100124.13;;;5.87;100.00
32298;BME280;18782;48.984;8.548;2023-12-20T05:50:57;100120.75;;;5.88;100.00
32298;BME280;18782;48.984;8.548;2023-12-20T05:53:25;100131.78;;;5.87;100.00
32298;BME280;18782;48.984;8.548;2023-12-20T05:55:52;100126.06;;;5.91;100.00
32298;BME280;18782;48.984;8.548;2023-12-20T05:58:20;100138.66;;;5.88;100.00
32298;BME280;18782;48.984;8.548;2023-12-20T06:00:48;100139.63;;;5.90;100.00
32298;BME280;18782;48.984;8.548;2023-12-20T06:03:16;100142.31;;;5.93;100.00
32298;BME280;18782;48.984;8.548;2023-12-20T06:05:43;100148.41;;;5.95;100.00
32298;BME280;18782;48.984;8.548;2023-12-20T06:08:12;100141.50;;;5.94;100.00
32298;BME280;18782;48.984;8.548;2023-12-20T06:10:40;100152.69;;;5.96;100.00
32298;BME280;18782;48.984;8.548;2023-12-20T06:13:08;100157.41;;;6.07;100.00
32298;BME280;18782;48.984;8.548;2023-12-20T06:15:36;100159.16;;;6.08;100.00
32298;BME280;18782;48.984;8.548;2023-12-20T06:18:04;100169.50;;;6.11;100.00
32298;BME280;18782;48.984;8.548;2023-12-20T06:20:32;100173.63;;;6.07;100.00
32298;BME280;18782;48.984;8.548;2023-12-20T06:22:59;100181.25;;;6.06;100.00
32298;BME280;18782;48.984;8.548;2023-12-20T06:25:29;100187.63;;;6.15;100.00
32298;BME280;18782;48.984;8.548;2023-12-20T06:27:56;100191.22;;;6.77;100.00
32298;BME280;18782;48.984;8.548;2023-12-20T06:30:24;100190.44;;;6.59;100.00
32298;BME280;18782;48.984;8.548;2023-12-20T06:32:53;100202.53;;;6.43;100.00
32298;BME280;18782;48.984;8.548;2023-12-20T06:35:24;100191.22;;;6.38;100.00
32298;BME280;18782;48.984;8.548;2023-12-20T06:37:52;100201.72;;;6.44;100.00
32298;BME280;18782;48.984;8.548;2023-12-20T06:40:19;100204.22;;;6.43;100.00
32298;BME280;18782;48.984;8.548;2023-12-20T06:42:48;100206.41;;;6.35;100.00
32298;BME280;18782;48.984;8.548;2023-12-20T06:45:30;100201.19;;;6.32;100.00
32298;BME280;18782;48.984;8.548;2023-12-20T06:47:58;100205.56;;;6.35;100.00
32298;BME280;18782;48.984;8.548;2023-12-20T06:50:26;100200.22;;;6.30;100.00
32298;BME280;18782;48.984;8.548;2023-12-20T06:52:54;100206.16;;;6.29;100.00
32298;BME280;18782;48.984;8.548;2023-12-20T06:55:22;100211.50;;;6.16;100.00
32298;BME280;18782;48.984;8.548;2023-12-20T06:57:51;100215.06;;;6.19;100.00
32298;BME280;18782;48.984;8.548;2023-12-20T07:00:19;100211.69;;;6.38;100.00
32298;BME280;18782;48.984;8.548;2023-12-20T07:02:47;100224.59;;;6.22;100.00
32298;BME280;18782;48.984;8.548;2023-12-20T07:05:16;100234.50;;;6.16;100.00
32298;BME280;18782;48.984;8.548;2023-12-20T07:07:46;100222.53;;;6.15;100.00
32298;BME280;18782;48.984;8.548;2023-12-20T07:10:14;100227.22;;;6.06;100.00
32298;BME280;18782;48.984;8.548;2023-12-20T07:12:42;100219.59;;;5.89;100.00
32298;BME280;18782;48.984;8.548;2023-12-20T07:15:12;100230.28;;;5.98;100.00
32298;BME280;18782;48.984;8.548;2023-12-20T07:17:39;100231.75;;;5.93;100.00
32298;BME280;18782;48.984;8.548;2023-12-20T07:20:08;100233.53;;;5.78;100.00
32298;BME280;18782;48.984;8.548;2023-12-20T07:22:37;100230.53;;;5.69;100.00
32298;BME280;18782;48.984;8.548;2023-12-20T07:25:07;100240.47;;;5.63;100.00
32298;BME280;18782;48.984;8.548;2023-12-20T07:27:34;100250.53;;;5.60;100.00
32298;BME280;18782;48.984;8.548;2023-12-20T07:30:03;100255.34;;;5.54;100.00
32298;BME280;18782;48.984;8.548;2023-12-20T07:32:32;100260.47;;;5.54;100.00
32298;BME280;18782;48.984;8.548;2023-12-20T07:34:59;100250.94;;;5.51;100.00
32298;BME280;18782;48.984;8.548;2023-12-20T07:37:27;100264.28;;;5.45;100.00
32298;BME280;18782;48.984;8.548;2023-12-20T07:39:55;100264.47;;;5.48;100.00
32298;BME280;18782;48.984;8.548;2023-12-20T07:42:23;100261.22;;;5.53;100.00
32298;BME280;18782;48.984;8.548;2023-12-20T07:44:50;100265.63;;;5.55;100.00
32298;BME280;18782;48.984;8.548;2023-12-20T07:47:18;100269.22;;;5.59;100.00
32298;BME280;18782;48.984;8.548;2023-12-20T07:49:49;100267.16;;;5.52;100.00
32298;BME280;18782;48.984;8.548;2023-12-20T07:52:18;100270.34;;;5.47;100.00
32298;BME280;18782;48.984;8.548;2023-12-20T07:54:46;100265.09;;;5.44;100.00
32298;BME280;18782;48.984;8.548;2023-12-20T07:57:14;100267.94;;;5.50;100.00
32298;BME280;18782;48.984;8.548;2023-12-20T07:59:41;100266.84;;;5.45;100.00
32298;BME280;18782;48.984;8.548;2023-12-20T08:02:11;100265.91;;;5.43;100.00
32298;BME280;18782;48.984;8.548;2023-12-20T08:04:38;100263.03;;;5.37;100.00
32298;BME280;18782;48.984;8.548;2023-12-20T08:07:08;100268.47;;;5.43;100.00
32298;BME280;18782;48.984;8.548;2023-12-20T08:09:36;100283.78;;;5.43;100.00
32298;BME280;18782;48.984;8.548;2023-12-20T08:12:07;100286.09;;;5.39;100.00
32298;BME280;18782;48.984;8.548;2023-12-20T08:14:35;100286.00;;;5.37;100.00
32298;BME280;18782;48.984;8.548;2023-12-20T08:17:03;100283.31;;;5.34;100.00
32298;BME280;18782;48.984;8.548;2023-12-20T08:19:31;100296.72;;;5.30;100.00
32298;BME280;18782;48.984;8.548;2023-12-20T08:21:59;100291.91;;;5.36;100.00
32298;BME280;18782;48.984;8.548;2023-12-20T08:24:28;100293.53;;;5.34;100.00
32298;BME280;18782;48.984;8.548;2023-12-20T08:26:57;100292.47;;;5.31;100.00
32298;BME280;18782;48.984;8.548;2023-12-20T08:29:24;100296.72;;;5.30;100.00
32298;BME280;18782;48.984;8.548;2023-12-20T08:31:52;100291.66;;;5.32;100.00
32298;BME280;18782;48.984;8.548;2023-12-20T08:34:20;100287.91;;;5.41;100.00
32298;BME280;18782;48.984;8.548;2023-12-20T08:36:48;100285.75;;;5.49;100.00
32298;BME280;18782;48.984;8.548;2023-12-20T08:39:16;100291.09;;;5.54;100.00
32298;BME280;18782;48.984;8.548;2023-12-20T08:41:45;100286.28;;;5.60;100.00
32298;BME280;18782;48.984;8.548;2023-12-20T08:44:13;100302.63;;;5.63;100.00
32298;BME280;18782;48.984;8.548;2023-12-20T08:46:40;100304.25;;;5.79;100.00
32298;BME280;18782;48.984;8.548;2023-12-20T08:49:08;100307.25;;;5.88;100.00
32298;BME280;18782;48.984;8.548;2023-12-20T08:51:36;100313.66;;;5.96;100.00
32298;BME280;18782;48.984;8.548;2023-12-20T08:54:06;100314.13;;;6.06;100.00
32298;BME280;18782;48.984;8.548;2023-12-20T08:56:35;100311.19;;;6.16;100.00
32298;BME280;18782;48.984;8.548;2023-12-20T08:59:04;100303.66;;;6.19;100.00
32298;BME280;18782;48.984;8.548;2023-12-20T09:01:31;100307.31;;;6.24;100.00
32298;BME280;18782;48.984;8.548;2023-12-20T09:03:59;100316.09;;;6.29;99.75
32298;BME280;18782;48.984;8.548;2023-12-20T09:06:27;100314.19;;;6.25;98.50
32298;BME280;18782;48.984;8.548;2023-12-20T09:08:54;100303.53;;;6.34;99.54
32298;BME280;18782;48.984;8.548;2023-12-20T09:11:22;100298.91;;;6.44;99.12
32298;BME280;18782;48.984;8.548;2023-12-20T09:13:50;100317.31;;;6.55;98.07
32298;BME280;18782;48.984;8.548;2023-12-20T09:16:19;100317.97;;;6.51;96.10
32298;BME280;18782;48.984;8.548;2023-12-20T09:18:47;100320.38;;;6.48;96.74
32298;BME280;18782;48.984;8.548;2023-12-20T09:21:15;100320.66;;;6.54;97.69
32298;BME280;18782;48.984;8.548;2023-12-20T09:23:42;100308.97;;;6.41;96.99
32298;BME280;18782;48.984;8.548;2023-12-20T09:26:10;100319.38;;;6.44;98.57
32298;BME280;18782;48.984;8.548;2023-12-20T09:28:38;100320.88;;;6.41;98.80
32298;BME280;18782;48.984;8.548;2023-12-20T09:31:07;100319.28;;;6.25;99.75
32298;BME280;18782;48.984;8.548;2023-12-20T09:33:36;100319.66;;;6.33;100.00
32298;BME280;18782;48.984;8.548;2023-12-20T09:36:04;100317.47;;;6.40;100.00
32298;BME280;18782;48.984;8.548;2023-12-20T09:38:32;100312.72;;;6.30;99.58
32298;BME280;18782;48.984;8.548;2023-12-20T09:41:01;100315.56;;;6.36;100.00
32298;BME280;18782;48.984;8.548;2023-12-20T09:43:30;100320.50;;;6.51;98.45
32298;BME280;18782;48.984;8.548;2023-12-20T09:46:00;100327.81;;;6.61;99.41
32298;BME280;18782;48.984;8.548;2023-12-20T09:48:29;100323.81;;;6.48;98.88
32298;BME280;18782;48.984;8.548;2023-12-20T09:50:59;100339.44;;;6.54;99.16
32298;BME280;18782;48.984;8.548;2023-12-20T09:53:27;100325.19;;;6.60;99.48
32298;BME280;18782;48.984;8.548;2023-12-20T09:55:58;100328.84;;;6.65;99.67
32298;BME280;18782;48.984;8.548;2023-12-20T09:58:26;100328.78;;;6.63;98.43
32298;BME280;18782;48.984;8.548;2023-12-20T10:00:55;100330.59;;;6.66;97.57
32298;BME280;18782;48.984;8.548;2023-12-20T10:03:25;100329.13;;;6.71;98.32
32298;BME280;18782;48.984;8.548;2023-12-20T10:05:54;100333.69;;;6.78;97.44
32298;BME280;18782;48.984;8.548;2023-12-20T10:08:25;100338.19;;;6.64;96.27
32298;BME280;18782;48.984;8.548;2023-12-20T10:10:53;100332.59;;;6.73;96.77
32298;BME280;18782;48.984;8.548;2023-12-20T10:13:22;100331.00;;;6.75;96.95
32298;BME280;18782;48.984;8.548;2023-12-20T10:15:51;100330.69;;;6.87;96.61
32298;BME280;18782;48.984;8.548;2023-12-20T10:18:20;100330.75;;;6.69;96.92
32298;BME280;18782;48.984;8.548;2023-12-20T10:20:48;100322.25;;;6.70;97.81
32298;BME280;18782;48.984;8.548;2023-12-20T10:23:16;100319.09;;;6.75;98.03
32298;BME280;18782;48.984;8.548;2023-12-20T10:25:55;100331.81;;;6.93;96.20
32298;BME280;18782;48.984;8.548;2023-12-20T10:28:23;100311.97;;;6.68;96.32
32298;BME280;18782;48.984;8.548;2023-12-20T10:30:54;100328.84;;;6.65;96.30
32298;BME280;18782;48.984;8.548;2023-12-20T10:33:24;100319.78;;;6.53;97.95
32298;BME280;18782;48.984;8.548;2023-12-20T10:35:52;100316.44;;;6.54;97.62
32298;BME280;18782;48.984;8.548;2023-12-20T10:38:20;100316.16;;;6.48;97.57
32298;BME280;18782;48.984;8.548;2023-12-20T10:40:48;100318.06;;;6.52;97.58
32298;BME280;18782;48.984;8.548;2023-12-20T10:43:18;100319.19;;;6.41;98.25
32298;BME280;18782;48.984;8.548;2023-12-20T10:45:46;100310.44;;;6.36;98.29
32298;BME280;18782;48.984;8.548;2023-12-20T10:48:14;100306.78;;;6.31;99.14
32298;BME280;18782;48.984;8.548;2023-12-20T10:50:44;100314.63;;;6.34;97.90
32298;BME280;18782;48.984;8.548;2023-12-20T10:53:13;100302.88;;;6.38;97.57
32298;BME280;18782;48.984;8.548;2023-12-20T10:55:41;100314.41;;;6.30;97.89
32298;BME280;18782;48.984;8.548;2023-12-20T10:58:10;100311.03;;;6.31;97.75
32298;BME280;18782;48.984;8.548;2023-12-20T11:00:40;100305.41;;;6.38;97.46
32298;BME280;18782;48.984;8.548;2023-12-20T11:03:10;100308.56;;;6.32;96.65
32298;BME280;18782;48.984;8.548;2023-12-20T11:05:45;100297.97;;;6.42;97.92
32298;BME280;18782;48.984;8.548;2023-12-20T11:08:22;100288.94;;;6.50;97.68
32298;BME280;18782;48.984;8.548;2023-12-20T11:10:57;100277.78;;;6.48;95.40
32298;BME280;18782;48.984;8.548;2023-12-20T11:13:31;100272.28;;;6.59;95.07
32298;BME280;18782;48.984;8.548;2023-12-20T11:16:02;100276.97;;;6.49;94.46
32298;BME280;18782;48.984;8.548;2023-12-20T11:18:30;100279.69;;;6.52;94.60
32298;BME280;18782;48.984;8.548;2023-12-20T11:21:00;100276.16;;;6.50;94.68
32298;BME280;18782;48.984;8.548;2023-12-20T11:23:29;100291.66;;;6.53;93.58
32298;BME280;18782;48.984;8.548;2023-12-20T11:25:57;100285.59;;;6.51;92.85
32298;BME280;18782;48.984;8.548;2023-12-20T11:28:26;100280.91;;;6.61;92.82
32298;BME280;18782;48.984;8.548;2023-12-20T11:30:58;100267.28;;;6.62;92.41
32298;BME280;18782;48.984;8.548;2023-12-20T11:33:29;100270.25;;;6.51;93.36
32298;BME280;18782;48.984;8.548;2023-12-20T11:35:59;100272.13;;;6.56;93.20
32298;BME280;18782;48.984;8.548;2023-12-20T11:38:27;100273.59;;;6.50;92.56
32298;BME280;18782;48.984;8.548;2023-12-20T11:40:54;100264.72;;;6.42;93.42
32298;BME280;18782;48.984;8.548;2023-12-20T11:43:34;100263.09;;;6.44;94.84
32298;BME280;18782;48.984;8.548;2023-12-20T11:46:03;100257.19;;;6.45;94.14
32298;BME280;18782;48.984;8.548;2023-12-20T11:48:34;100261.19;;;6.40;94.43
32298;BME280;18782;48.984;8.548;2023-12-20T11:51:02;100253.03;;;6.47;94.30
32298;BME280;18782;48.984;8.548;2023-12-20T11:53:35;100244.94;;;6.58;93.82
32298;BME280;18782;48.984;8.548;2023-12-20T11:56:04;100258.75;;;6.61;94.86
32298;BME280;18782;48.984;8.548;2023-12-20T11:58:32;100259.31;;;6.73;95.47
32298;BME280;18782;48.984;8.548;2023-12-20T12:00:59;100272.00;;;6.72;93.45
32298;BME280;18782;48.984;8.548;2023-12-20T12:03:29;100269.13;;;6.64;94.21
32298;BME280;18782;48.984;8.548;2023-12-20T12:05:58;100267.03;;;6.56;94.84
32298;BME280;18782;48.984;8.548;2023-12-20T12:08:27;100267.22;;;6.60;94.93
32298;BME280;18782;48.984;8.548;2023-12-20T12:10:54;100261.50;;;6.66;94.97
32298;BME280;18782;48.984;8.548;2023-12-20T12:13:22;100252.63;;;6.77;94.37
32298;BME280;18782;48.984;8.548;2023-12-20T12:15:53;100253.03;;;6.86;93.13
32298;BME280;18782;48.984;8.548;2023-12-20T12:18:21;100241.06;;;6.85;92.77
32298;BME280;18782;48.984;8.548;2023-12-20T12:20:49;100241.38;;;7.12;92.76
32298;BME280;18782;48.984;8.548;2023-12-20T12:23:23;100244.66;;;7.29;89.45
32298;BME280;18782;48.984;8.548;2023-12-20T12:25:51;100251.22;;;7.43;90.11
32298;BME280;18782;48.984;8.548;2023-12-20T12:28:19;100236.78;;;7.45;88.70
32298;BME280;18782;48.984;8.548;2023-12-20T12:30:56;100248.63;;;7.63;87.83
32298;BME280;18782;48.984;8.548;2023-12-20T12:33:24;100250.03;;;7.35;88.28
32298;BME280;18782;48.984;8.548;2023-12-20T12:35:52;100241.56;;;7.36;89.52
32298;BME280;18782;48.984;8.548;2023-12-20T12:38:20;100242.59;;;7.41;89.38
32298;BME280;18782;48.984;8.548;2023-12-20T12:40:49;100233.88;;;7.36;88.68
32298;BME280;18782;48.984;8.548;2023-12-20T12:43:19;100236.72;;;7.23;89.37
32298;BME280;18782;48.984;8.548;2023-12-20T12:45:49;100233.91;;;7.17;89.60
32298;BME280;18782;48.984;8.548;2023-12-20T12:48:17;100221.97;;;7.17;89.19
32298;BME280;18782;48.984;8.548;2023-12-20T12:50:45;100225.16;;;7.12;88.92
32298;BME280;18782;48.984;8.548;2023-12-20T12:53:13;100238.22;;;6.98;89.69
32298;BME280;18782;48.984;8.548;2023-12-20T12:55:41;100220.84;;;6.91;90.32
32298;BME280;18782;48.984;8.548;2023-12-20T12:58:09;100215.75;;;6.91;90.80